createdAt,value
2023-01-13T00:00:12.909Z,51.70
2023-01-13T00:02:16.655Z,51.70
2023-01-13T00:04:20.800Z,52.00
2023-01-13T00:06:29.110Z,52.50
2023-01-13T00:08:31.371Z,52.20
2023-01-13T00:10:34.784Z,52.50
2023-01-13T00:12:42.394Z,52.80
2023-01-13T00:14:44.200Z,52.80
2023-01-13T00:16:45.832Z,52.40
2023-01-13T00:18:48.342Z,52.70
2023-01-13T00:21:08.628Z,52.60
2023-01-13T00:23:10.281Z,52.80
2023-01-13T00:25:12.273Z,52.80
2023-01-13T00:27:16.329Z,53.20
2023-01-13T00:29:19.973Z,53.10
2023-01-13T00:31:21.981Z,53.00
2023-01-13T00:33:24.034Z,52.70
2023-01-13T00:35:25.743Z,52.50
2023-01-13T00:37:27.515Z,53.10
2023-01-13T00:39:29.288Z,53.10
2023-01-13T00:41:53.198Z,53.00
2023-01-13T00:43:54.903Z,53.00
2023-01-13T00:45:56.603Z,53.10
2023-01-13T00:47:58.240Z,53.00
2023-01-13T00:49:59.994Z,53.10
2023-01-13T00:52:01.750Z,53.40
2023-01-13T00:54:03.460Z,53.40
2023-01-13T00:56:21.895Z,53.30
2023-01-13T00:58:26.335Z,53.10
2023-01-13T01:00:36.213Z,53.00
2023-01-13T01:02:37.987Z,53.10
2023-01-13T01:04:42.002Z,53.60
2023-01-13T01:06:43.751Z,53.70
2023-01-13T01:08:45.554Z,53.80
2023-01-13T01:10:47.293Z,53.70
2023-01-13T01:12:50.800Z,53.70
2023-01-13T01:14:54.928Z,53.70
2023-01-13T01:16:56.658Z,53.50
2023-01-13T01:18:59.679Z,53.80
2023-01-13T01:21:02.110Z,53.80
2023-01-13T01:23:06.558Z,54.00
2023-01-13T01:25:08.724Z,53.70
2023-01-13T01:27:10.387Z,53.60
2023-01-13T01:29:15.442Z,53.80
2023-01-13T01:31:20.708Z,53.70
2023-01-13T01:33:22.394Z,53.90
2023-01-13T01:35:24.597Z,54.20
2023-01-13T01:37:26.447Z,53.80
2023-01-13T01:39:28.107Z,53.70
2023-01-13T01:41:33.012Z,53.90
2023-01-13T01:44:00.005Z,54.30
2023-01-13T01:46:02.108Z,54.80
2023-01-13T01:48:04.807Z,54.90
2023-01-13T01:50:07.875Z,54.60
2023-01-13T01:52:35.452Z,54.40
2023-01-13T01:54:49.108Z,54.40
2023-01-13T01:56:51.665Z,55.30
2023-01-13T01:58:54.287Z,54.70
2023-01-13T02:00:56.100Z,54.90
2023-01-13T02:03:00.405Z,54.90
2023-01-13T02:05:02.717Z,54.80
2023-01-13T02:07:06.648Z,54.60
2023-01-13T02:09:12.329Z,55.60
2023-01-13T02:11:49.822Z,54.60
2023-01-13T02:13:52.092Z,54.70
2023-01-13T02:16:15.201Z,54.60
2023-01-13T02:18:52.333Z,54.60
2023-01-13T02:21:20.257Z,54.40
2023-01-13T02:23:50.785Z,54.80
2023-01-13T02:26:23.861Z,55.20
2023-01-13T02:29:07.401Z,54.60
2023-01-13T02:31:34.270Z,54.80
2023-01-13T02:33:39.097Z,54.50
2023-01-13T02:36:06.125Z,55.00
2023-01-13T02:38:12.137Z,54.90
2023-01-13T02:40:30.139Z,55.30
2023-01-13T02:43:05.019Z,54.80
2023-01-13T02:45:17.357Z,55.40
2023-01-13T02:47:28.569Z,55.60
2023-01-13T02:49:40.966Z,55.20
2023-01-13T02:51:45.559Z,55.10
2023-01-13T02:53:54.865Z,55.10
2023-01-13T02:56:01.116Z,55.10
2023-01-13T02:58:08.924Z,55.30
2023-01-13T03:00:13.356Z,55.20
2023-01-13T03:02:20.418Z,55.00
2023-01-13T03:04:56.270Z,54.90
2023-01-13T03:07:10.070Z,55.10
2023-01-13T03:09:17.410Z,54.80
2023-01-13T03:11:23.359Z,55.00
2023-01-13T03:13:43.026Z,54.70
2023-01-13T03:16:15.781Z,54.70
2023-01-13T03:18:37.792Z,54.50
2023-01-13T03:20:49.717Z,54.20
2023-01-13T03:23:02.801Z,53.80
2023-01-13T03:25:24.247Z,54.00
2023-01-13T03:27:37.574Z,53.30
2023-01-13T03:29:50.696Z,53.00
2023-01-13T03:32:06.915Z,52.20
2023-01-13T03:34:15.936Z,50.90
2023-01-13T03:36:22.524Z,49.10
2023-01-13T03:38:42.578Z,48.50
2023-01-13T03:40:54.603Z,47.10
2023-01-13T03:43:29.001Z,45.30
2023-01-13T03:45:34.431Z,44.50
2023-01-13T03:47:50.980Z,43.90
2023-01-13T03:50:10.644Z,42.40
2023-01-13T03:52:21.544Z,41.90
2023-01-13T03:54:27.997Z,41.00
2023-01-13T03:57:07.460Z,41.30
2023-01-13T03:59:15.022Z,40.70
2023-01-13T04:01:50.944Z,40.10
2023-01-13T04:04:00.265Z,40.00
2023-01-13T04:06:14.189Z,39.90
2023-01-13T04:08:25.376Z,39.50
2023-01-13T04:10:44.533Z,39.80
2023-01-13T04:13:02.047Z,39.90
2023-01-13T04:15:04.122Z,39.80
2023-01-13T04:17:05.869Z,39.80
2023-01-13T04:19:07.617Z,39.90
2023-01-13T04:21:09.402Z,39.80
2023-01-13T04:23:13.439Z,39.90
2023-01-13T04:25:18.003Z,39.80
2023-01-13T04:27:19.795Z,39.80
2023-01-13T04:29:23.387Z,39.50
2023-01-13T04:31:25.107Z,39.60
2023-01-13T04:33:28.658Z,39.50
2023-01-13T04:35:36.516Z,39.00
2023-01-13T04:37:38.141Z,39.30
2023-01-13T04:39:39.796Z,38.90
2023-01-13T04:41:59.291Z,38.50
2023-01-13T04:44:00.939Z,38.30
2023-01-13T04:46:03.911Z,38.50
2023-01-13T04:48:05.951Z,38.50
2023-01-13T04:50:08.943Z,38.30
2023-01-13T04:52:10.601Z,38.20
2023-01-13T04:54:12.290Z,38.20
2023-01-13T04:56:13.940Z,38.20
2023-01-13T04:58:15.903Z,38.20
2023-01-13T05:00:19.868Z,38.10
2023-01-13T05:02:21.823Z,37.70
2023-01-13T05:04:28.135Z,37.50
2023-01-13T05:06:29.899Z,37.60
2023-01-13T05:08:33.991Z,38.30
2023-01-13T05:10:35.758Z,37.80
2023-01-13T05:12:55.811Z,38.10
2023-01-13T05:15:15.919Z,38.10
2023-01-13T05:17:21.157Z,38.10
2023-01-13T05:19:22.937Z,38.10
2023-01-13T05:21:43.142Z,38.10
2023-01-13T05:24:03.256Z,38.10
2023-01-13T05:26:06.067Z,38.10
2023-01-13T05:28:08.336Z,38.10
2023-01-13T05:30:10.639Z,38.00
2023-01-13T05:32:12.405Z,38.00
2023-01-13T05:34:16.496Z,37.60
2023-01-13T05:36:18.432Z,37.30
2023-01-13T05:38:20.252Z,37.20
2023-01-13T05:40:40.847Z,37.10
2023-01-13T05:43:03.319Z,36.80
2023-01-13T05:45:05.377Z,36.60
2023-01-13T05:47:07.292Z,36.70
2023-01-13T05:49:08.918Z,36.80
2023-01-13T05:51:12.721Z,36.80
2023-01-13T05:53:20.278Z,36.80
2023-01-13T05:55:21.999Z,36.80
2023-01-13T05:57:23.723Z,36.90
2023-01-13T05:59:26.861Z,36.90
2023-01-13T06:01:28.548Z,36.70
2023-01-13T06:03:30.304Z,36.70
2023-01-13T06:05:32.909Z,36.80
2023-01-13T06:07:34.662Z,36.70
2023-01-13T06:09:36.473Z,36.90
2023-01-13T06:11:41.133Z,36.90
2023-01-13T06:13:43.785Z,37.00
2023-01-13T06:15:47.817Z,37.30
2023-01-13T06:17:49.763Z,37.10
2023-01-13T06:19:53.509Z,37.20
2023-01-13T06:21:58.056Z,37.10
2023-01-13T06:23:59.774Z,38.30
2023-01-13T06:26:18.782Z,38.30
2023-01-13T06:28:22.641Z,38.40
2023-01-13T06:30:24.785Z,38.30
2023-01-13T06:32:32.294Z,38.30
2023-01-13T06:34:38.158Z,38.30
2023-01-13T06:36:49.999Z,38.90
2023-01-13T06:38:56.413Z,38.30
2023-01-13T06:41:01.001Z,38.40
2023-01-13T06:43:16.574Z,38.70
2023-01-13T06:45:18.872Z,39.00
2023-01-13T06:47:22.296Z,39.20
2023-01-13T06:49:23.947Z,39.30
2023-01-13T06:51:29.441Z,39.40
2023-01-13T06:53:31.561Z,39.60
2023-01-13T06:55:33.362Z,39.70
2023-01-13T06:57:35.082Z,39.80
2023-01-13T06:59:36.788Z,40.10
2023-01-13T07:01:38.505Z,40.00
2023-01-13T07:03:40.887Z,40.30
2023-01-13T07:05:44.267Z,40.40
2023-01-13T07:07:46.165Z,40.40
2023-01-13T07:09:50.551Z,40.70
2023-01-13T07:11:52.707Z,40.80
2023-01-13T07:14:12.920Z,41.10
2023-01-13T07:16:19.136Z,41.30
2023-01-13T07:18:20.892Z,41.10
2023-01-13T07:20:27.778Z,41.10
2023-01-13T07:22:29.640Z,41.30
2023-01-13T07:24:31.443Z,41.40
2023-01-13T07:26:33.121Z,41.20
2023-01-13T07:28:35.364Z,41.00
2023-01-13T07:30:38.434Z,41.00
2023-01-13T07:32:40.216Z,41.10
2023-01-13T07:34:41.901Z,40.90
2023-01-13T07:36:43.638Z,40.90
2023-01-13T07:38:45.379Z,40.60
2023-01-13T07:40:49.400Z,40.40
2023-01-13T07:43:11.837Z,40.20
2023-01-13T07:45:13.587Z,39.10
2023-01-13T07:47:15.343Z,40.00
2023-01-13T07:49:17.111Z,38.80
2023-01-13T07:51:18.771Z,39.70
2023-01-13T07:53:21.355Z,38.50
2023-01-13T07:55:23.066Z,38.40
2023-01-13T07:57:24.811Z,38.30
2023-01-13T07:59:26.434Z,37.50
2023-01-13T08:01:28.543Z,36.90
2023-01-13T08:03:30.314Z,36.70
2023-01-13T08:05:32.178Z,35.50
2023-01-13T08:07:33.963Z,36.30
2023-01-13T08:09:36.628Z,35.00
2023-01-13T08:11:38.243Z,34.40
2023-01-13T08:13:42.048Z,34.10
2023-01-13T08:15:59.005Z,34.10
2023-01-13T08:18:00.983Z,33.90
2023-01-13T08:20:04.477Z,33.90
2023-01-13T08:22:06.179Z,33.90
2023-01-13T08:24:10.180Z,33.60
2023-01-13T08:26:16.345Z,33.30
2023-01-13T08:28:18.248Z,33.30
2023-01-13T08:30:20.384Z,33.30
2023-01-13T08:32:22.109Z,32.90
2023-01-13T08:34:23.820Z,32.80
2023-01-13T08:36:25.584Z,32.70
2023-01-13T08:38:27.298Z,32.60
2023-01-13T08:40:29.312Z,32.30
2023-01-13T08:42:31.109Z,32.10
2023-01-13T08:44:32.885Z,32.20
2023-01-13T08:46:35.087Z,32.00
2023-01-13T08:48:37.161Z,32.40
2023-01-13T08:50:38.865Z,32.70
2023-01-13T08:52:41.087Z,32.90
2023-01-13T08:54:42.808Z,33.10
2023-01-13T08:56:47.424Z,33.50
2023-01-13T08:58:49.111Z,33.80
2023-01-13T09:00:50.917Z,33.90
2023-01-13T09:02:52.533Z,34.40
2023-01-13T09:04:54.555Z,35.70
2023-01-13T09:06:58.492Z,36.20
2023-01-13T09:09:03.397Z,36.50
2023-01-13T09:11:25.191Z,36.40
2023-01-13T09:13:28.107Z,36.60
2023-01-13T09:15:29.875Z,36.40
2023-01-13T09:17:31.576Z,35.60
2023-01-13T09:19:33.496Z,36.70
2023-01-13T09:21:35.212Z,36.30
2023-01-13T09:23:36.990Z,35.20
2023-01-13T09:25:39.497Z,34.90
2023-01-13T09:27:44.884Z,34.50
2023-01-13T09:29:48.711Z,34.10
2023-01-13T09:31:50.528Z,34.00
2023-01-13T09:34:11.052Z,33.70
2023-01-13T09:36:12.719Z,33.00
2023-01-13T09:38:14.442Z,32.20
2023-01-13T09:40:19.870Z,32.40
2023-01-13T09:43:10.874Z,32.00
2023-01-13T09:45:24.381Z,31.60
2023-01-13T09:47:33.485Z,31.10
2023-01-13T09:49:39.118Z,31.00
2023-01-13T09:51:49.949Z,30.10
2023-01-13T09:53:57.260Z,30.50
2023-01-13T09:55:59.609Z,30.70
2023-01-13T09:58:02.904Z,30.40
2023-01-13T10:00:13.796Z,30.00
2023-01-13T10:02:36.528Z,29.90
2023-01-13T10:04:38.314Z,29.70
2023-01-13T10:06:42.467Z,29.30
2023-01-13T10:08:50.534Z,28.90
2023-01-13T10:10:56.776Z,28.70
2023-01-13T10:13:18.097Z,28.70
2023-01-13T10:15:23.223Z,28.50
2023-01-13T10:17:39.182Z,28.60
2023-01-13T10:19:47.265Z,28.50
2023-01-13T10:22:01.064Z,28.80
2023-01-13T10:24:17.713Z,29.00
2023-01-13T10:26:39.556Z,29.20
2023-01-13T10:28:41.255Z,29.50
2023-01-13T10:30:45.705Z,29.60
2023-01-13T10:33:17.575Z,29.70
2023-01-13T10:35:48.206Z,28.80
2023-01-13T10:38:16.046Z,28.30
2023-01-13T10:40:18.876Z,28.20
2023-01-13T10:42:25.350Z,28.60
2023-01-13T10:44:30.049Z,28.20
2023-01-13T10:46:50.953Z,27.60
2023-01-13T10:48:55.787Z,27.20
2023-01-13T10:50:57.459Z,27.10
2023-01-13T10:53:18.961Z,27.20
2023-01-13T10:55:31.919Z,27.20
2023-01-13T10:57:36.968Z,27.20
2023-01-13T10:59:44.377Z,27.30
2023-01-13T11:02:25.366Z,27.40
2023-01-13T11:04:38.021Z,27.50
2023-01-13T11:06:45.729Z,27.50
2023-01-13T11:08:50.006Z,27.30
2023-01-13T11:10:55.015Z,27.50
2023-01-13T11:13:03.990Z,27.60
2023-01-13T11:15:14.035Z,27.70
2023-01-13T11:17:21.058Z,27.70
2023-01-13T11:19:27.442Z,27.60
2023-01-13T11:21:38.856Z,27.20
2023-01-13T11:23:47.270Z,27.30
2023-01-13T11:26:00.965Z,27.90
2023-01-13T11:28:17.967Z,27.90
2023-01-13T11:30:38.548Z,27.80
2023-01-13T11:33:19.820Z,27.90
2023-01-13T11:35:22.253Z,28.40
2023-01-13T11:37:29.908Z,27.80
2023-01-13T11:39:55.243Z,27.80
2023-01-13T11:42:20.912Z,27.90
2023-01-13T11:44:31.884Z,27.80
2023-01-13T11:46:33.771Z,27.30
2023-01-13T11:48:42.710Z,27.50
2023-01-13T11:51:14.111Z,27.20
2023-01-13T11:53:21.332Z,27.80
2023-01-13T11:55:32.984Z,27.80
2023-01-13T11:58:16.703Z,27.80
2023-01-13T12:00:33.172Z,27.50
2023-01-13T12:03:05.702Z,27.60
2023-01-13T12:05:26.832Z,27.20
2023-01-13T12:07:50.052Z,26.90
2023-01-13T12:10:13.514Z,26.40
2023-01-13T12:12:48.186Z,26.40
2023-01-13T12:15:07.948Z,26.90
2023-01-13T12:17:22.814Z,26.60
2023-01-13T12:19:32.374Z,26.40
2023-01-13T12:21:56.655Z,26.40
2023-01-13T12:24:25.151Z,26.30
2023-01-13T12:26:31.749Z,26.20
2023-01-13T12:28:50.746Z,26.10
2023-01-13T12:30:59.412Z,26.60
2023-01-13T12:33:13.538Z,27.10
2023-01-13T12:35:27.248Z,27.10
2023-01-13T12:37:51.783Z,27.30
2023-01-13T12:40:21.124Z,27.80
2023-01-13T12:43:16.981Z,27.50
2023-01-13T12:45:29.873Z,27.70
2023-01-13T12:47:37.078Z,28.10
2023-01-13T12:49:40.360Z,28.00
2023-01-13T12:51:54.035Z,28.80
2023-01-13T12:53:56.769Z,29.30
2023-01-13T12:56:33.080Z,29.50
2023-01-13T12:58:35.907Z,29.70
2023-01-13T13:01:13.174Z,29.80
2023-01-13T13:03:28.195Z,29.90
2023-01-13T13:05:41.199Z,30.00
2023-01-13T13:07:51.920Z,30.50
2023-01-13T13:09:57.693Z,30.10
2023-01-13T13:12:51.045Z,29.30
2023-01-13T13:15:03.400Z,29.20
2023-01-13T13:17:28.524Z,29.00
2023-01-13T13:19:32.913Z,28.80
2023-01-13T13:22:12.861Z,29.00
2023-01-13T13:24:16.953Z,28.70
2023-01-13T13:26:21.624Z,28.40
2023-01-13T13:28:24.968Z,28.30
2023-01-13T13:30:33.544Z,28.00
2023-01-13T13:33:13.202Z,27.60
2023-01-13T13:35:31.879Z,27.60
2023-01-13T13:38:17.575Z,27.90
2023-01-13T13:40:37.954Z,28.20
2023-01-13T13:43:18.633Z,28.10
2023-01-13T13:45:41.918Z,28.10
2023-01-13T13:47:45.742Z,28.00
2023-01-13T13:49:54.257Z,28.30
2023-01-13T13:52:08.897Z,29.00
2023-01-13T13:54:14.356Z,29.30
2023-01-13T13:56:22.975Z,29.70
2023-01-13T13:58:26.287Z,30.00
2023-01-13T14:00:34.432Z,30.30
2023-01-13T14:02:38.854Z,30.50
2023-01-13T14:04:40.825Z,30.70
2023-01-13T14:06:54.472Z,31.60
2023-01-13T14:08:56.080Z,31.40
2023-01-13T14:10:57.850Z,31.10
2023-01-13T14:13:01.513Z,31.50
2023-01-13T14:15:03.641Z,31.70
2023-01-13T14:17:05.353Z,32.10
2023-01-13T14:19:33.050Z,32.20
2023-01-13T14:21:34.823Z,31.90
2023-01-13T14:23:36.548Z,31.70
2023-01-13T14:25:45.751Z,31.80
2023-01-13T14:27:47.462Z,31.80
2023-01-13T14:29:52.206Z,31.80
2023-01-13T14:31:56.084Z,32.00
2023-01-13T14:34:03.495Z,31.90
2023-01-13T14:36:39.693Z,32.20
2023-01-13T14:38:43.169Z,32.20
2023-01-13T14:40:47.166Z,32.20
2023-01-13T14:43:00.690Z,32.40
2023-01-13T14:45:03.201Z,32.30
2023-01-13T14:47:28.513Z,32.80
2023-01-13T14:49:43.898Z,33.10
2023-01-13T14:51:47.616Z,33.20
2023-01-13T14:53:52.586Z,33.10
2023-01-13T14:55:54.280Z,33.10
2023-01-13T14:58:25.090Z,33.20
2023-01-13T15:00:26.937Z,33.10
2023-01-13T15:02:34.021Z,32.40
2023-01-13T15:04:38.152Z,32.10
2023-01-13T15:06:39.901Z,31.90
2023-01-13T15:08:43.871Z,31.90
2023-01-13T15:10:53.854Z,31.80
2023-01-13T15:12:57.891Z,32.00
2023-01-13T15:15:02.006Z,31.10
2023-01-13T15:17:05.844Z,32.30
2023-01-13T15:19:09.867Z,31.30
2023-01-13T15:21:12.143Z,31.40
2023-01-13T15:23:17.257Z,32.30
2023-01-13T15:25:20.025Z,32.40
2023-01-13T15:27:26.183Z,32.30
2023-01-13T15:29:29.214Z,32.40
2023-01-13T15:31:31.221Z,32.20
2023-01-13T15:33:33.154Z,32.20
2023-01-13T15:35:36.997Z,32.20
2023-01-13T15:37:38.815Z,32.20
2023-01-13T15:39:40.633Z,32.30
2023-01-13T15:42:00.734Z,32.60
2023-01-13T15:44:21.024Z,32.90
2023-01-13T15:46:37.816Z,33.00
2023-01-13T15:48:39.593Z,33.00
2023-01-13T15:50:44.890Z,33.10
2023-01-13T15:52:46.602Z,33.30
2023-01-13T15:54:49.316Z,33.30
2023-01-13T15:56:51.762Z,33.30
2023-01-13T15:58:53.839Z,33.20
2023-01-13T16:00:55.811Z,33.20
2023-01-13T16:02:59.076Z,33.00
2023-01-13T16:05:01.679Z,33.10
2023-01-13T16:07:03.400Z,32.90
2023-01-13T16:09:05.903Z,32.70
2023-01-13T16:11:09.502Z,32.70
2023-01-13T16:13:12.504Z,32.40
2023-01-13T16:15:18.609Z,32.30
2023-01-13T16:17:23.212Z,32.20
2023-01-13T16:19:24.919Z,32.10
2023-01-13T16:21:26.727Z,31.90
2023-01-13T16:23:30.781Z,31.60
2023-01-13T16:25:32.726Z,31.60
2023-01-13T16:27:34.379Z,31.40
2023-01-13T16:29:37.257Z,31.30
2023-01-13T16:31:39.127Z,31.40
2023-01-13T16:33:40.917Z,31.20
2023-01-13T16:35:44.712Z,31.30
2023-01-13T16:38:04.955Z,31.50
2023-01-13T16:40:19.977Z,31.40
2023-01-13T16:42:21.824Z,31.50
2023-01-13T16:44:23.803Z,31.40
2023-01-13T16:46:30.176Z,31.50
2023-01-13T16:48:31.956Z,31.60
2023-01-13T16:50:42.282Z,31.90
2023-01-13T16:52:43.941Z,31.90
2023-01-13T16:54:45.671Z,32.10
2023-01-13T16:56:49.502Z,31.80
2023-01-13T16:58:53.555Z,32.00
2023-01-13T17:00:55.339Z,32.00
2023-01-13T17:03:01.813Z,32.00
2023-01-13T17:05:04.184Z,32.00
2023-01-13T17:07:14.055Z,31.80
2023-01-13T17:09:20.895Z,31.90
2023-01-13T17:11:24.988Z,31.80
2023-01-13T17:13:26.950Z,31.70
2023-01-13T17:15:28.798Z,31.70
2023-01-13T17:17:30.654Z,31.80
2023-01-13T17:19:36.781Z,32.00
2023-01-13T17:21:38.448Z,32.10
2023-01-13T17:23:40.322Z,32.20
2023-01-13T17:25:44.460Z,32.20
2023-01-13T17:27:46.333Z,32.10
2023-01-13T17:29:48.152Z,32.00
2023-01-13T17:31:51.461Z,31.80
2023-01-13T17:33:53.263Z,31.80
2023-01-13T17:35:57.917Z,31.90
2023-01-13T17:38:00.110Z,31.60
2023-01-13T17:40:01.805Z,31.90
2023-01-13T17:42:03.568Z,32.10
2023-01-13T17:44:05.297Z,32.00
2023-01-13T17:46:11.589Z,32.20
2023-01-13T17:48:13.409Z,32.20
2023-01-13T17:50:17.269Z,32.30
2023-01-13T17:52:20.163Z,32.50
2023-01-13T17:54:23.203Z,32.50
2023-01-13T17:56:25.220Z,32.70
2023-01-13T17:58:36.033Z,32.60
2023-01-13T18:00:37.889Z,32.70
2023-01-13T18:02:39.600Z,32.70
2023-01-13T18:04:44.130Z,32.70
2023-01-13T18:06:46.546Z,33.00
2023-01-13T18:08:48.810Z,33.10
2023-01-13T18:10:52.158Z,33.10
2023-01-13T18:12:53.919Z,33.20
2023-01-13T18:14:55.658Z,33.20
2023-01-13T18:17:00.034Z,33.40
2023-01-13T18:19:20.493Z,33.30
2023-01-13T18:21:43.246Z,33.50
2023-01-13T18:24:03.765Z,33.70
2023-01-13T18:26:36.649Z,33.60
2023-01-13T18:28:40.487Z,33.60
2023-01-13T18:30:42.401Z,33.50
2023-01-13T18:32:46.430Z,33.50
2023-01-13T18:34:53.976Z,33.50
2023-01-13T18:37:00.494Z,33.50
2023-01-13T18:39:03.462Z,33.50
2023-01-13T18:41:25.669Z,33.50
2023-01-13T18:43:32.440Z,33.50
2023-01-13T18:45:34.561Z,33.60
2023-01-13T18:47:38.952Z,33.70
2023-01-13T18:49:42.605Z,33.70
2023-01-13T18:51:44.684Z,33.70
2023-01-13T18:53:46.498Z,33.80
2023-01-13T18:55:50.697Z,33.80
2023-01-13T18:57:53.539Z,33.90
2023-01-13T18:59:56.988Z,34.10
2023-01-13T19:01:59.030Z,34.10
2023-01-13T19:04:05.637Z,34.20
2023-01-13T19:06:13.758Z,34.30
2023-01-13T19:08:15.617Z,34.50
2023-01-13T19:10:18.168Z,34.50
2023-01-13T19:12:26.335Z,34.60
2023-01-13T19:14:36.432Z,34.70
2023-01-13T19:16:38.182Z,34.70
2023-01-13T19:18:42.113Z,34.70
2023-01-13T19:20:44.726Z,34.90
2023-01-13T19:22:54.501Z,34.80
2023-01-13T19:24:57.725Z,34.70
2023-01-13T19:26:59.454Z,34.70
2023-01-13T19:29:01.108Z,34.60
2023-01-13T19:31:05.062Z,34.90
2023-01-13T19:33:07.385Z,34.90
2023-01-13T19:35:09.365Z,35.10
2023-01-13T19:37:13.602Z,35.20
2023-01-13T19:39:15.375Z,35.00
2023-01-13T19:41:46.442Z,35.10
2023-01-13T19:44:06.750Z,35.30
2023-01-13T19:46:08.971Z,35.30
2023-01-13T19:48:11.764Z,35.20
2023-01-13T19:50:14.292Z,35.10
2023-01-13T19:52:16.105Z,35.10
2023-01-13T19:54:19.986Z,35.10
2023-01-13T19:56:21.608Z,35.00
2023-01-13T19:58:24.124Z,34.90
2023-01-13T20:00:25.896Z,34.70
2023-01-13T20:02:28.599Z,35.40
2023-01-13T20:04:38.169Z,34.80
2023-01-13T20:06:44.141Z,34.80
2023-01-13T20:08:46.107Z,34.70
2023-01-13T20:10:48.933Z,34.60
2023-01-13T20:12:50.962Z,34.60
2023-01-13T20:14:52.749Z,34.70
2023-01-13T20:16:54.536Z,34.60
2023-01-13T20:18:57.239Z,34.60
2023-01-13T20:21:03.833Z,34.50
2023-01-13T20:23:05.568Z,34.40
2023-01-13T20:25:08.450Z,34.40
2023-01-13T20:27:10.293Z,34.20
2023-01-13T20:29:12.273Z,34.20
2023-01-13T20:31:17.216Z,34.10
2023-01-13T20:33:19.771Z,33.90
2023-01-13T20:35:21.422Z,33.90
2023-01-13T20:37:25.552Z,33.90
2023-01-13T20:39:27.380Z,33.70
2023-01-13T20:41:47.944Z,33.60
2023-01-13T20:43:53.468Z,33.40
2023-01-13T20:45:55.712Z,33.40
2023-01-13T20:47:59.839Z,33.20
2023-01-13T20:50:01.584Z,33.10
2023-01-13T20:52:09.528Z,32.90
2023-01-13T20:54:13.798Z,32.90
2023-01-13T20:56:21.030Z,32.70
2023-01-13T20:58:22.814Z,32.60
2023-01-13T21:00:24.721Z,32.50
2023-01-13T21:02:26.932Z,32.50
2023-01-13T21:04:29.337Z,32.30
2023-01-13T21:06:36.576Z,32.90
2023-01-13T21:08:38.341Z,32.20
2023-01-13T21:10:41.547Z,31.90
2023-01-13T21:13:04.237Z,32.00
2023-01-13T21:15:19.819Z,32.10
2023-01-13T21:17:43.151Z,32.00
2023-01-13T21:19:44.814Z,32.10
2023-01-13T21:21:46.481Z,32.00
2023-01-13T21:23:52.854Z,32.00
2023-01-13T21:25:57.341Z,32.00
2023-01-13T21:28:11.219Z,32.10
2023-01-13T21:30:14.900Z,32.10
2023-01-13T21:32:16.712Z,32.20
2023-01-13T21:34:18.413Z,32.30
2023-01-13T21:36:21.551Z,32.20
2023-01-13T21:38:23.949Z,32.40
2023-01-13T21:40:25.639Z,33.10
2023-01-13T21:42:46.325Z,32.70
2023-01-13T21:45:06.444Z,32.90
2023-01-13T21:47:37.187Z,32.90
2023-01-13T21:49:44.380Z,33.90
2023-01-13T21:51:46.186Z,33.20
2023-01-13T21:53:50.419Z,33.30
2023-01-13T21:55:54.313Z,33.40
2023-01-13T21:57:58.477Z,33.60
2023-01-13T22:00:00.144Z,34.10
2023-01-13T22:02:24.424Z,33.60
2023-01-13T22:04:26.673Z,33.60
2023-01-13T22:06:28.752Z,33.60
2023-01-13T22:08:32.912Z,33.80
2023-01-13T22:10:35.507Z,33.80
2023-01-13T22:12:37.535Z,33.70
2023-01-13T22:14:39.237Z,33.80
2023-01-13T22:16:42.327Z,33.70
2023-01-13T22:18:44.181Z,33.70
2023-01-13T22:20:49.293Z,33.70
2023-01-13T22:22:53.612Z,33.70
2023-01-13T22:24:55.285Z,33.70
2023-01-13T22:26:56.909Z,33.70
2023-01-13T22:28:58.866Z,33.60
2023-01-13T22:31:02.255Z,33.60
2023-01-13T22:33:03.977Z,33.70
2023-01-13T22:35:09.985Z,33.60
2023-01-13T22:37:13.411Z,33.60
2023-01-13T22:39:15.072Z,33.50
2023-01-13T22:41:16.776Z,33.50
2023-01-13T22:43:18.457Z,33.50
2023-01-13T22:45:20.160Z,33.60
2023-01-13T22:47:21.899Z,33.30
2023-01-13T22:49:23.757Z,33.30
2023-01-13T22:51:26.459Z,33.50
2023-01-13T22:53:31.439Z,33.30
2023-01-13T22:55:33.186Z,33.40
2023-01-13T22:57:47.373Z,33.30
2023-01-13T22:59:49.966Z,33.40
2023-01-13T23:01:51.776Z,33.30
2023-01-13T23:03:54.148Z,33.30
2023-01-13T23:05:57.155Z,33.30
2023-01-13T23:07:58.795Z,33.40
2023-01-13T23:10:02.871Z,33.20
2023-01-13T23:12:04.828Z,33.60
2023-01-13T23:14:08.965Z,33.50
2023-01-13T23:16:20.799Z,33.50
2023-01-13T23:18:27.396Z,33.60
2023-01-13T23:20:34.268Z,33.60
2023-01-13T23:22:38.651Z,33.60
2023-01-13T23:24:40.512Z,33.60
2023-01-13T23:26:42.300Z,33.80
2023-01-13T23:28:46.907Z,34.10
2023-01-13T23:30:49.687Z,34.00
2023-01-13T23:32:53.693Z,34.00
2023-01-13T23:34:55.382Z,34.00
2023-01-13T23:36:57.201Z,34.00
2023-01-13T23:38:59.348Z,34.10
2023-01-13T23:41:04.967Z,34.30
2023-01-13T23:43:12.025Z,34.10
2023-01-13T23:45:13.815Z,34.10
2023-01-13T23:47:15.543Z,34.30
2023-01-13T23:49:17.350Z,34.50
2023-01-13T23:51:21.197Z,34.30
2023-01-13T23:53:23.002Z,34.30
2023-01-13T23:55:25.425Z,34.20
2023-01-13T23:57:27.233Z,34.20
2023-01-13T23:59:31.400Z,34.20
